YVR weather

Vancouver International Airport
Vancouver, British Columbia, Canada

Public forecast

Using degrees Celsius for public forecast. Weather courtesy of forecast.io.

METAR (pilot weather report)

Retrieved 2017/06/27 03:00 UTC (2 minutes ago):

CYVR 270300Z 22004KT 30SM SCT240 19/13 A2989 RMK CI4 SLP122 DENSITY ALT 500FT

TAF (pilot weather forecast)

Retrieved 2017/06/27 03:39 UTC (0 seconds ago):

TAF CYVR 270238Z 2703/2806 28005KT P6SM SCT230 BECMG 2708/2710 09007KT BECMG 2717/2719 26010KT RMK NXT FCST BY 270600Z